Time;durP1;ratioP1;P1;durP2;ratioP2;P2;SDS_P1;SDS_P2;PMS_P1;PMS_P2;Temp;Humidity;BMP_temperature;BMP_pressure;BME280_temperature;BME280_humidity;BME280_pressure;Samples;Min_cycle;Max_cycle;Signal;HPM_P1;HPM_P2
2021/11/08 00:01:29;;;;;;;8.48;0.25;;;6.60;99.90;;;;;;5056134;28;20029;-75
2021/11/08 00:03:54;;;;;;;7.25;0.10;;;6.60;99.90;;;;;;5042315;28;20469;-75
2021/11/08 00:06:20;;;;;;;7.07;0.57;;;6.50;99.90;;;;;;5045681;28;20029;-75
2021/11/08 00:08:46;;;;;;;8.68;0.45;;;6.50;99.90;;;;;;5053756;28;20021;-75
2021/11/08 00:11:12;;;;;;;5.20;0.40;;;6.50;99.90;;;;;;5076159;28;20028;-75
2021/11/08 00:13:38;;;;;;;7.50;0.50;;;6.40;99.90;;;;;;5071822;28;20032;-75
2021/11/08 00:21:32;;;;;;;6.75;0.70;;;6.40;99.90;;;;;;5076665;28;20040;-75
2021/11/08 00:23:59;;;;;;;9.48;1.30;;;6.30;99.90;;;;;;5092113;28;20032;-75
2021/11/08 00:26:24;;;;;;;9.52;0.40;;;6.40;99.90;;;;;;5064702;28;20393;-75
2021/11/08 00:28:50;;;;;;;9.32;0.38;;;6.40;99.90;;;;;;5051563;28;20021;-75
2021/11/08 00:31:16;;;;;;;9.60;0.95;;;6.50;99.90;;;;;;5054703;28;20028;-75
2021/11/08 00:33:42;;;;;;;11.07;0.50;;;6.60;99.90;;;;;;5052114;28;20449;-75
2021/11/08 00:36:08;;;;;;;6.82;0.35;;;6.60;99.90;;;;;;5063562;28;20029;-75
2021/11/08 00:38:34;;;;;;;11.55;0.90;;;6.70;99.90;;;;;;5037227;28;20021;-75
2021/11/08 00:41:01;;;;;;;13.52;0.30;;;6.70;99.90;;;;;;5055211;28;20474;-75
2021/11/08 00:43:27;;;;;;;9.20;0.43;;;6.70;99.90;;;;;;5055149;28;20533;-74
2021/11/08 00:45:53;;;;;;;5.18;0.30;;;6.70;99.90;;;;;;5069714;28;20074;-75
2021/11/08 00:48:21;;;;;;;8.05;0.50;;;6.70;99.90;;;;;;5063003;28;20029;-75
2021/11/08 00:50:49;;;;;;;7.65;0.82;;;6.70;99.90;;;;;;5063024;28;20021;-75
2021/11/08 00:53:15;;;;;;;8.55;0.82;;;6.60;99.90;;;;;;5075013;28;20017;-75
2021/11/08 00:55:42;;;;;;;7.07;0.15;;;6.50;99.90;;;;;;5074945;28;20029;-75
2021/11/08 00:58:14;;;;;;;5.55;1.23;;;6.50;99.90;;;;;;5074482;28;20099;-75
2021/11/08 01:00:40;;;;;;;6.85;1.42;;;6.40;99.90;;;;;;5060453;28;20024;-75
2021/11/08 01:03:07;;;;;;;9.52;0.95;;;6.40;99.90;;;;;;5094606;28;20416;-76
2021/11/08 01:05:34;;;;;;;7.13;0.13;;;6.30;99.90;;;;;;5068947;28;20090;-75
2021/11/08 01:08:00;;;;;;;11.73;1.33;;;6.30;99.90;;;;;;5058327;28;20032;-75
2021/11/08 01:10:26;;;;;;;15.43;0.98;;;6.20;99.90;;;;;;5054142;28;20024;-75
2021/11/08 01:12:52;;;;;;;7.40;0.63;;;6.10;99.90;;;;;;5055187;28;20020;-75
2021/11/08 01:15:18;;;;;;;11.00;0.70;;;6.00;99.90;;;;;;5054628;28;20029;-74
2021/11/08 01:17:45;;;;;;;11.57;0.20;;;6.00;99.90;;;;;;5056672;28;20027;-75
2021/11/08 01:20:12;;;;;;;12.85;0.68;;;5.90;99.90;;;;;;5074031;28;20036;-75
2021/11/08 01:22:39;;;;;;;6.15;0.20;;;5.90;99.90;;;;;;5051181;28;20028;-74
2021/11/08 01:25:06;;;;;;;4.10;0.25;;;5.90;99.90;;;;;;5036400;28;20483;-75
2021/11/08 01:27:40;;;;;;;6.88;0.10;;;5.90;99.90;;;;;;5057875;28;20024;-75
2021/11/08 01:30:17;;;;;;;9.38;0.70;;;5.90;99.90;;;;;;5082778;28;20479;-74
2021/11/08 01:35:26;;;;;;;8.75;0.20;;;5.80;99.90;;;;;;5094560;28;20032;-74
2021/11/08 01:38:01;;;;;;;3.97;0.47;;;5.80;99.90;;;;;;5075918;28;20552;-74
2021/11/08 01:40:27;;;;;;;9.77;0.10;;;5.70;99.90;;;;;;5042201;28;20404;-74
2021/11/08 01:42:53;;;;;;;8.93;0.60;;;5.70;99.90;;;;;;5036047;28;20021;-74
2021/11/08 01:45:19;;;;;;;12.23;0.43;;;5.70;99.90;;;;;;5075336;28;20116;-75
2021/11/08 01:47:44;;;;;;;9.40;0.82;;;5.70;99.90;;;;;;5088482;28;20008;-75
2021/11/08 01:50:10;;;;;;;5.90;0.20;;;5.70;99.90;;;;;;5056116;28;20028;-74
2021/11/08 01:52:36;;;;;;;8.20;0.90;;;5.60;99.90;;;;;;5073776;28;20029;-75
2021/11/08 01:55:03;;;;;;;11.32;0.98;;;5.60;99.90;;;;;;5054966;28;20112;-75
2021/11/08 01:57:29;;;;;;;9.95;0.65;;;5.50;99.90;;;;;;5070303;28;20028;-74
2021/11/08 02:00:00;;;;;;;8.32;0.63;;;5.50;99.90;;;;;;5054297;28;20501;-75
2021/11/08 02:02:26;;;;;;;4.03;0.80;;;5.40;99.90;;;;;;5054187;28;20025;-75
2021/11/08 02:04:52;;;;;;;10.48;0.82;;;5.30;99.90;;;;;;5075671;28;20028;-75
2021/11/08 02:07:18;;;;;;;10.02;0.85;;;5.30;99.90;;;;;;5066875;28;20029;-75
2021/11/08 02:09:43;;;;;;;10.60;0.90;;;5.30;99.90;;;;;;5063321;28;20025;-75
2021/11/08 02:12:10;;;;;;;10.95;1.10;;;5.20;99.90;;;;;;5053957;28;20021;-75
2021/11/08 02:14:40;;;;;;;6.72;0.70;;;5.20;99.90;;;;;;5044389;28;20013;-75
2021/11/08 02:17:07;;;;;;;12.75;0.82;;;5.10;99.90;;;;;;5053913;28;20017;-75
2021/11/08 02:19:33;;;;;;;3.55;0.03;;;5.10;99.90;;;;;;5072698;28;20028;-75
2021/11/08 02:22:01;;;;;;;5.68;0.30;;;5.10;99.90;;;;;;5055862;28;20028;-75
2021/11/08 02:24:28;;;;;;;12.35;0.35;;;5.10;99.90;;;;;;5055498;28;20032;-75
2021/11/08 02:26:54;;;;;;;8.88;1.75;;;5.00;99.90;;;;;;5074220;28;20017;-75
2021/11/08 02:29:20;;;;;;;6.03;0.10;;;5.00;99.90;;;;;;5068983;28;20385;-75
2021/11/08 02:31:46;;;;;;;2.95;0.20;;;4.90;99.90;;;;;;5073506;28;20028;-75
2021/11/08 02:34:12;;;;;;;4.63;0.43;;;4.90;99.90;;;;;;5050662;28;20028;-74
2021/11/08 02:36:42;;;;;;;5.30;0.30;;;4.90;99.90;;;;;;5053656;28;20452;-75
2021/11/08 02:39:28;;;;;;;4.47;0.20;;;4.80;99.90;;;;;;5039564;28;20021;-75
2021/11/08 02:41:54;;;;;;;5.32;0.15;;;4.80;99.90;;;;;;5073080;28;20029;-75
2021/11/08 02:44:19;;;;;;;5.68;0.20;;;4.80;99.90;;;;;;5077697;28;20090;-74
2021/11/08 02:46:45;;;;;;;4.63;0.25;;;4.80;99.90;;;;;;5066497;28;20440;-74
2021/11/08 02:49:12;;;;;;;5.82;0.30;;;4.80;99.90;;;;;;5057437;28;20016;-75
2021/11/08 02:51:44;;;;;;;5.97;0.25;;;4.70;99.90;;;;;;5059011;28;20104;-75
2021/11/08 02:54:23;;;;;;;7.28;1.10;;;4.70;99.90;;;;;;5058924;28;20016;-74
2021/11/08 02:56:49;;;;;;;3.08;0.10;;;4.70;99.90;;;;;;5058974;28;20052;-74
2021/11/08 02:59:15;;;;;;;6.78;0.75;;;4.70;99.90;;;;;;5059106;28;20052;-74
2021/11/08 03:01:42;;;;;;;5.70;0.13;;;4.60;99.90;;;;;;5083253;28;20036;-74
2021/11/08 03:04:14;;;;;;;7.32;0.70;;;4.60;99.90;;;;;;5096871;28;20047;-74
2021/11/08 03:06:40;;;;;;;9.85;0.50;;;4.60;99.90;;;;;;5045565;28;20033;-74
2021/11/08 03:09:17;;;;;;;3.30;0.47;;;4.60;99.90;;;;;;5067452;28;20032;-73
2021/11/08 03:11:44;;;;;;;2.90;0.10;;;4.60;99.90;;;;;;5066493;28;20082;-74
2021/11/08 03:14:14;;;;;;;6.70;0.20;;;4.60;99.90;;;;;;5065622;28;20039;-75
2021/11/08 03:16:46;;;;;;;11.13;0.30;;;4.70;99.90;;;;;;5059170;28;20017;-73
2021/11/08 03:19:16;;;;;;;4.28;0.30;;;4.80;99.90;;;;;;5077225;28;20103;-74
2021/11/08 03:21:43;;;;;;;4.28;0.30;;;4.90;99.90;;;;;;5079034;28;20036;-75
2021/11/08 03:24:15;;;;;;;4.55;0.13;;;5.00;99.90;;;;;;5076855;28;20413;-75
2021/11/08 03:29:06;;;;;;;3.67;0.73;;;5.20;99.90;;;;;;5077146;28;20426;-75
2021/11/08 03:31:34;;;;;;;8.77;0.20;;;5.30;99.90;;;;;;5058398;28;20021;-74
2021/11/08 03:34:00;;;;;;;10.52;0.17;;;5.30;99.90;;;;;;5074310;28;20466;-73
2021/11/08 03:36:26;;;;;;;5.03;0.28;;;5.40;99.90;;;;;;5038560;28;20053;-75
2021/11/08 03:38:52;;;;;;;6.60;0.43;;;5.40;99.90;;;;;;5056266;28;20021;-75
2021/11/08 03:41:17;;;;;;;9.88;0.20;;;5.40;99.90;;;;;;5056415;28;20557;-75
2021/11/08 03:43:43;;;;;;;7.55;0.10;;;5.50;99.90;;;;;;5055874;28;20354;-74
2021/11/08 03:46:09;;;;;;;3.15;0.32;;;5.50;99.90;;;;;;5056676;28;20388;-74
2021/11/08 03:48:35;;;;;;;5.90;0.52;;;5.50;99.90;;;;;;5095594;28;20028;-75
2021/11/08 03:51:00;;;;;;;9.65;0.17;;;5.50;99.90;;;;;;5077870;28;20019;-75
2021/11/08 03:53:26;;;;;;;9.98;0.20;;;5.50;99.90;;;;;;5096164;28;20024;-75
2021/11/08 03:55:53;;;;;;;4.90;0.30;;;5.60;99.90;;;;;;5090862;28;20023;-75
2021/11/08 03:58:19;;;;;;;6.65;0.43;;;5.60;99.90;;;;;;5096124;28;20025;-75
2021/11/08 04:00:45;;;;;;;10.88;0.40;;;5.60;99.90;;;;;;5064116;28;20019;-75
2021/11/08 04:03:11;;;;;;;3.75;0.20;;;5.60;99.90;;;;;;5067898;28;20032;-76
2021/11/08 04:05:39;;;;;;;7.70;0.93;;;5.60;99.90;;;;;;5071285;28;20025;-76
2021/11/08 04:08:09;;;;;;;5.22;0.03;;;5.60;99.90;;;;;;5048252;28;20378;-74
2021/11/08 04:10:41;;;;;;;10.35;0.93;;;5.60;99.90;;;;;;5075199;28;20051;-75
2021/11/08 04:13:07;;;;;;;10.30;0.28;;;5.60;99.90;;;;;;5046328;28;20029;-75
2021/11/08 04:15:37;;;;;;;5.90;0.22;;;5.60;99.90;;;;;;5081723;28;20009;-75
2021/11/08 04:18:09;;;;;;;4.80;0.50;;;5.60;99.90;;;;;;5075327;28;20020;-75
2021/11/08 04:20:37;;;;;;;6.25;0.10;;;5.40;99.90;;;;;;5057462;28;20431;-75
2021/11/08 04:23:03;;;;;;;5.23;0.20;;;5.40;99.90;;;;;;5055651;28;20474;-76
2021/11/08 04:25:29;;;;;;;7.28;0.60;;;5.40;99.90;;;;;;5081004;28;20021;-76
2021/11/08 04:27:57;;;;;;;9.55;0.30;;;5.50;99.90;;;;;;5074733;28;20031;-75
2021/11/08 04:30:23;;;;;;;4.25;0.20;;;5.50;99.90;;;;;;5057399;28;20107;-75
2021/11/08 04:41:16;;;;;;;7.88;0.45;;;5.90;99.90;;;;;;5055335;28;20059;-75
2021/11/08 04:47:13;;;;;;;9.00;0.70;;;5.90;99.90;;;;;;5032469;28;20546;-75
2021/11/08 04:54:51;;;;;;;8.55;0.88;;;6.00;99.90;;;;;;5071847;28;20021;-74
2021/11/08 05:31:39;;;;;;;4.88;0.55;;;5.90;99.90;;;;;;5066967;28;20025;-74
2021/11/08 05:34:05;;;;;;;6.55;0.10;;;5.80;99.90;;;;;;5053951;28;20025;-74
2021/11/08 05:36:31;;;;;;;6.47;0.13;;;5.80;99.90;;;;;;5065404;28;20374;-75
2021/11/08 05:38:56;;;;;;;5.75;0.32;;;5.70;99.90;;;;;;5057426;28;20094;-75
2021/11/08 05:41:22;;;;;;;7.43;0.35;;;5.60;99.90;;;;;;5073873;28;20074;-75
2021/11/08 05:43:48;;;;;;;7.70;0.22;;;5.50;99.90;;;;;;5073694;28;20035;-75
2021/11/08 05:46:13;;;;;;;9.95;0.85;;;5.50;99.90;;;;;;5064997;28;20025;-75
2021/11/08 05:48:39;;;;;;;6.88;0.70;;;5.50;99.90;;;;;;5065437;28;20085;-75
2021/11/08 05:51:06;;;;;;;9.75;1.38;;;5.50;99.90;;;;;;5041379;28;20021;-74
2021/11/08 05:53:32;;;;;;;4.28;0.32;;;5.50;99.90;;;;;;5053968;28;20048;-74
2021/11/08 05:56:10;;;;;;;5.57;0.52;;;5.40;99.90;;;;;;5043362;28;20033;-75
2021/11/08 06:10:29;;;;;;;7.72;0.45;;;5.40;99.90;;;;;;5083320;28;20478;-75
2021/11/08 06:50:19;;;;;;;7.45;0.52;;;6.30;99.90;;;;;;5098218;28;20043;-76
2021/11/08 06:52:49;;;;;;;12.38;1.10;;;6.30;99.90;;;;;;5079350;28;20471;-77
2021/11/08 06:55:15;;;;;;;4.53;0.60;;;6.30;99.90;;;;;;5078453;28;20020;-78
2021/11/08 06:57:46;;;;;;;6.20;0.52;;;6.20;99.90;;;;;;5080119;28;20017;-75
2021/11/08 07:00:18;;;;;;;9.18;1.27;;;6.20;99.90;;;;;;5059584;28;20024;-75
2021/11/08 07:02:44;;;;;;;10.57;0.52;;;6.20;99.90;;;;;;5065682;28;20083;-74
2021/11/08 07:05:10;;;;;;;6.93;0.35;;;6.10;99.90;;;;;;5051766;28;20032;-76
2021/11/08 07:07:36;;;;;;;5.90;0.93;;;6.10;99.90;;;;;;5065456;28;20500;-75
2021/11/08 07:10:03;;;;;;;10.07;1.38;;;6.10;99.90;;;;;;5057236;28;20392;-79
2021/11/08 07:12:28;;;;;;;4.60;0.65;;;6.10;99.90;;;;;;5056938;28;20036;-75
2021/11/08 07:14:54;;;;;;;12.13;1.00;;;6.20;99.90;;;;;;5089056;22;20480;-75
2021/11/08 07:17:19;;;;;;;6.57;0.60;;;6.20;99.90;;;;;;5099494;28;20016;-79
2021/11/08 07:19:45;;;;;;;14.57;1.33;;;6.20;99.90;;;;;;5116791;27;20379;-79
2021/11/08 07:22:11;;;;;;;12.73;1.30;;;6.30;99.90;;;;;;5119849;27;20027;-75
2021/11/08 07:24:42;;;;;;;8.18;0.98;;;6.40;99.90;;;;;;5118181;27;20031;-77
2021/11/08 07:27:08;;;;;;;12.60;0.98;;;6.50;99.90;;;;;;5137692;27;20027;-77
2021/11/08 07:29:37;;;;;;;9.00;0.70;;;6.60;99.90;;;;;;5118942;27;20101;-76
2021/11/08 07:32:04;;;;;;;12.05;1.35;;;6.60;99.90;;;;;;5138216;27;20068;-76
2021/11/08 07:34:29;;;;;;;6.95;0.47;;;6.70;99.90;;;;;;5119044;27;20027;-75
2021/11/08 07:36:55;;;;;;;10.32;0.50;;;6.80;99.90;;;;;;5137920;27;20038;-76
2021/11/08 07:39:21;;;;;;;5.80;0.45;;;6.90;99.90;;;;;;5119224;27;20019;-75
2021/11/08 07:41:47;;;;;;;15.07;2.50;;;7.00;99.90;;;;;;5119784;27;20395;-76
2021/11/08 07:44:13;;;;;;;9.57;0.95;;;7.10;99.90;;;;;;5120203;27;20015;-78
2021/11/08 07:46:38;;;;;;;10.90;0.82;;;7.10;99.90;;;;;;5138097;27;20031;-75
2021/11/08 07:49:04;;;;;;;11.82;1.02;;;7.30;99.90;;;;;;5138210;27;20031;-76
2021/11/08 07:51:29;;;;;;;12.77;0.90;;;7.40;99.90;;;;;;5137614;27;20023;-76
2021/11/08 07:53:55;;;;;;;5.82;0.63;;;7.50;99.90;;;;;;5119077;27;20030;-75
2021/11/08 07:56:21;;;;;;;11.68;1.05;;;7.60;99.90;;;;;;5138464;27;20030;-75
2021/11/08 07:58:48;;;;;;;8.43;0.82;;;7.60;99.90;;;;;;5119162;27;20463;-75
2021/11/08 08:01:15;;;;;;;11.18;0.95;;;7.80;99.90;;;;;;5119444;27;20019;-75
2021/11/08 08:03:41;;;;;;;5.13;0.63;;;7.90;99.90;;;;;;5119019;27;20022;-75
2021/11/08 08:06:07;;;;;;;8.07;0.50;;;7.90;99.90;;;;;;5138289;27;20023;-75
2021/11/08 08:08:34;;;;;;;12.05;0.45;;;8.00;99.90;;;;;;5136762;27;20020;-76
2021/11/08 08:10:59;;;;;;;9.45;1.23;;;8.10;99.90;;;;;;5137517;27;20072;-75
2021/11/08 08:13:28;;;;;;;15.73;0.70;;;8.10;99.90;;;;;;5137125;27;20031;-76
2021/11/08 08:15:59;;;;;;;10.68;0.20;;;8.40;99.90;;;;;;5137340;27;20028;-76
2021/11/08 08:18:29;;;;;;;8.90;1.08;;;8.30;99.90;;;;;;5137707;27;20054;-75
2021/11/08 08:20:55;;;;;;;9.50;0.80;;;8.30;99.90;;;;;;5136917;27;20020;-76
2021/11/08 08:23:22;;;;;;;6.15;0.40;;;8.30;99.90;;;;;;5118411;27;20042;-75
2021/11/08 08:25:48;;;;;;;7.22;0.75;;;8.40;99.90;;;;;;5136836;27;20462;-75
2021/11/08 08:28:13;;;;;;;16.52;1.80;;;8.40;99.90;;;;;;5136233;27;20015;-76
2021/11/08 08:30:39;;;;;;;6.57;0.80;;;8.40;99.90;;;;;;5136391;27;20027;-76
2021/11/08 08:33:05;;;;;;;9.82;0.57;;;8.40;99.90;;;;;;5137042;27;20015;-76
2021/11/08 08:35:36;;;;;;;9.10;0.82;;;8.40;99.90;;;;;;5136607;27;20064;-77
2021/11/08 08:38:03;;;;;;;7.93;0.52;;;8.50;99.90;;;;;;5118405;27;20018;-77
2021/11/08 08:40:29;;;;;;;8.65;0.65;;;8.50;99.90;;;;;;5118300;27;20503;-78
2021/11/08 08:42:54;;;;;;;9.57;0.80;;;8.60;99.90;;;;;;5118008;27;20068;-76
2021/11/08 08:45:20;;;;;;;8.18;0.70;;;8.60;99.90;;;;;;5118040;27;20027;-76
2021/11/08 08:47:46;;;;;;;8.05;0.70;;;8.70;99.90;;;;;;5117888;27;20027;-76
2021/11/08 08:50:12;;;;;;;10.80;1.45;;;8.70;99.90;;;;;;5136434;27;20030;-78
2021/11/08 08:52:40;;;;;;;7.05;0.32;;;8.70;99.90;;;;;;5135949;27;20140;-78
2021/11/08 08:55:07;;;;;;;15.30;2.75;;;8.80;99.90;;;;;;5136163;27;20026;-78
2021/11/08 08:57:33;;;;;;;6.97;0.50;;;8.80;99.90;;;;;;5136080;27;20031;-77
2021/11/08 08:59:58;;;;;;;6.35;0.80;;;8.90;99.90;;;;;;5135804;27;20130;-78
2021/11/08 09:02:24;;;;;;;12.82;0.93;;;8.90;99.90;;;;;;5136346;27;20023;-78
2021/11/08 09:04:50;;;;;;;9.45;0.65;;;8.90;99.90;;;;;;5117303;27;20043;-77
2021/11/08 09:07:16;;;;;;;13.88;1.48;;;9.00;99.90;;;;;;5117573;27;20023;-76
2021/11/08 09:09:42;;;;;;;5.78;0.32;;;9.10;99.90;;;;;;5136253;27;20371;-76
2021/11/08 09:12:09;;;;;;;17.83;0.68;;;9.10;99.90;;;;;;5135700;27;20471;-76
2021/11/08 09:14:37;;;;;;;9.00;1.80;;;9.20;99.90;;;;;;5117307;27;20459;-76
2021/11/08 09:17:03;;;;;;;6.00;0.50;;;9.30;99.90;;;;;;5117245;27;20067;-76
2021/11/08 09:19:29;;;;;;;5.63;0.10;;;9.40;99.90;;;;;;5117114;27;20019;-77
2021/11/08 09:21:55;;;;;;;15.02;0.40;;;9.60;99.90;;;;;;5134757;27;20028;-77
2021/11/08 09:24:22;;;;;;;9.68;1.02;;;9.70;99.90;;;;;;5116914;27;20140;-78
2021/11/08 09:26:49;;;;;;;6.32;0.77;;;10.00;99.90;;;;;;5117102;27;20110;-78
2021/11/08 09:29:18;;;;;;;9.32;0.25;;;10.10;99.90;;;;;;5116909;27;20027;-77
2021/11/08 09:31:44;;;;;;;;;;;10.30;99.90;;;;;;5136073;27;20015;-78
2021/11/08 09:34:11;;;;;;;2.92;0.28;;;10.30;99.90;;;;;;5116879;28;19910;-77
2021/11/08 09:36:39;;;;;;;2.97;0.57;;;10.30;99.90;;;;;;5116812;27;20410;-76
2021/11/08 09:39:10;;;;;;;10.93;1.08;;;10.30;99.90;;;;;;5135227;27;20029;-76
2021/11/08 09:41:36;;;;;;;12.85;0.55;;;10.20;99.90;;;;;;5116988;27;20027;-78
2021/11/08 09:44:06;;;;;;;4.22;0.38;;;10.20;99.90;;;;;;5117070;27;20050;-77
2021/11/08 09:46:33;;;;;;;6.93;0.45;;;10.30;99.90;;;;;;5117315;28;20054;-76
2021/11/08 09:49:01;;;;;;;7.13;0.93;;;10.50;99.90;;;;;;5116328;28;20030;-78
2021/11/08 09:51:32;;;;;;;11.13;0.50;;;10.60;99.90;;;;;;5135403;27;20032;-76
2021/11/08 09:53:59;;;;;;;11.02;0.38;;;10.80;99.90;;;;;;5116219;28;20023;-77
2021/11/08 09:56:45;;;;;;;11.90;0.40;;;10.90;99.90;;;;;;5116198;28;20063;-76
2021/11/08 09:59:15;;;;;;;10.10;0.40;;;11.10;99.90;;;;;;5100585;28;20158;-75
2021/11/08 10:01:43;;;;;;;8.70;0.60;;;11.30;99.90;;;;;;5134870;28;20031;-77
2021/11/08 10:04:10;;;;;;;5.68;0.35;;;11.50;99.90;;;;;;5135217;28;20038;-77
2021/11/08 10:06:37;;;;;;;15.73;0.52;;;11.50;99.90;;;;;;5134667;28;20433;-77
2021/11/08 10:09:07;;;;;;;6.30;0.25;;;11.60;99.90;;;;;;5134919;28;20023;-77
2021/11/08 10:11:36;;;;;;;6.18;0.25;;;11.50;99.90;;;;;;5116920;28;20030;-78
2021/11/08 10:14:03;;;;;;;6.20;0.60;;;11.50;99.90;;;;;;5138570;28;20043;-79
2021/11/08 10:16:32;;;;;;;12.18;1.42;;;11.40;99.90;;;;;;5137295;28;20046;-80
2021/11/08 10:19:00;;;;;;;15.63;0.60;;;11.30;99.90;;;;;;5140195;28;20020;-80
2021/11/08 10:21:35;;;;;;;7.15;0.52;;;11.30;99.90;;;;;;5117909;28;20076;-80
2021/11/08 10:24:05;;;;;;;8.20;0.10;;;11.30;99.90;;;;;;5117940;28;20025;-80
2021/11/08 10:26:34;;;;;;;8.10;0.75;;;11.30;99.90;;;;;;5117875;28;20030;-81
2021/11/08 10:29:07;;;;;;;9.80;0.68;;;11.30;99.90;;;;;;5116955;28;20070;-80
2021/11/08 10:31:36;;;;;;;9.73;0.68;;;11.30;99.90;;;;;;5117018;28;20061;-80
2021/11/08 10:34:06;;;;;;;7.88;0.32;;;11.30;99.90;;;;;;5135836;28;20081;-78
2021/11/08 10:36:32;;;;;;;15.65;1.48;;;11.40;99.90;;;;;;5136104;28;20496;-80
2021/11/08 10:39:00;;;;;;;10.10;0.55;;;11.40;99.90;;;;;;5135772;28;20019;-79
2021/11/08 10:44:06;;;;;;;7.00;0.35;;;11.40;99.90;;;;;;5074401;28;20055;-80
2021/11/08 10:46:35;;;;;;;8.27;0.90;;;11.40;99.90;;;;;;5056971;28;20016;-80
2021/11/08 10:49:06;;;;;;;11.50;1.05;;;11.50;99.90;;;;;;5067534;28;20388;-78
2021/11/08 10:51:35;;;;;;;10.18;1.15;;;11.60;99.90;;;;;;5093547;28;20020;-77
2021/11/08 10:54:13;;;;;;;7.82;0.98;;;11.70;99.90;;;;;;5056928;28;20025;-77
2021/11/08 10:56:47;;;;;;;6.75;0.20;;;11.70;99.90;;;;;;5059356;28;20023;-80
2021/11/08 10:59:17;;;;;;;19.05;1.33;;;11.70;99.90;;;;;;5082770;28;20020;-79
2021/11/08 11:01:44;;;;;;;8.15;0.50;;;11.60;99.90;;;;;;5103764;28;20426;-79
2021/11/08 11:04:12;;;;;;;6.40;0.28;;;11.60;99.90;;;;;;5084672;28;20032;-80
2021/11/08 11:06:41;;;;;;;10.60;0.70;;;11.50;99.90;;;;;;5064448;28;20021;-79
2021/11/08 11:09:13;;;;;;;8.43;0.32;;;11.70;99.90;;;;;;5082696;28;20115;-79
2021/11/08 11:11:38;;;;;;;4.80;0.77;;;11.90;99.90;;;;;;5083586;28;20020;-79
2021/11/08 11:14:04;;;;;;;7.97;1.05;;;12.00;99.90;;;;;;5096670;28;20484;-78
2021/11/08 11:16:33;;;;;;;11.10;0.85;;;12.20;99.90;;;;;;5069341;28;20029;-78
2021/11/08 11:19:07;;;;;;;10.38;0.77;;;12.40;99.90;;;;;;5082043;28;20032;-80
2021/11/08 11:21:34;;;;;;;7.03;0.60;;;12.60;99.90;;;;;;5081322;28;20085;-78
2021/11/08 11:24:05;;;;;;;11.32;0.65;;;12.90;99.90;;;;;;5067878;28;20027;-78
2021/11/08 11:26:46;;;;;;;8.77;0.45;;;13.10;99.90;;;;;;5080900;28;20030;-77
2021/11/08 11:29:12;;;;;;;13.80;0.60;;;13.30;99.90;;;;;;5096093;28;20487;-77
2021/11/08 11:31:37;;;;;;;11.25;1.48;;;13.20;99.90;;;;;;5096947;28;20190;-77
2021/11/08 11:34:15;;;;;;;8.35;0.55;;;13.20;99.90;;;;;;5072134;28;20151;-78
2021/11/08 11:36:42;;;;;;;9.70;1.58;;;13.30;99.90;;;;;;5058382;28;20032;-77
2021/11/08 11:39:13;;;;;;;8.18;0.50;;;13.30;99.90;;;;;;5065378;28;20024;-77
2021/11/08 11:41:40;;;;;;;6.75;0.65;;;13.20;99.90;;;;;;5078937;28;20035;-78
2021/11/08 11:44:24;;;;;;;9.50;1.20;;;13.30;99.90;;;;;;5097367;28;20111;-77
2021/11/08 11:46:53;;;;;;;7.63;0.73;;;13.40;99.90;;;;;;5097313;28;20028;-77
2021/11/08 11:49:19;;;;;;;7.80;1.13;;;13.50;99.90;;;;;;5077338;28;20107;-77
2021/11/08 11:51:59;;;;;;;8.32;0.85;;;13.30;99.90;;;;;;5095955;28;20043;-77
2021/11/08 11:54:30;;;;;;;11.57;0.55;;;13.20;99.90;;;;;;5076295;28;20029;-77
2021/11/08 11:56:57;;;;;;;6.55;0.47;;;13.20;99.90;;;;;;5095024;28;20122;-78
2021/11/08 11:59:23;;;;;;;14.70;0.98;;;13.30;99.90;;;;;;5079996;28;20484;-78
2021/11/08 12:01:53;;;;;;;9.40;1.10;;;13.40;99.90;;;;;;5069846;28;20017;-77
2021/11/08 12:04:19;;;;;;;6.68;0.40;;;13.50;99.90;;;;;;5065833;28;20500;-76
2021/11/08 12:06:47;;;;;;;12.73;0.75;;;13.40;99.90;;;;;;5095425;28;20024;-76
2021/11/08 12:09:17;;;;;;;12.73;1.73;;;13.30;99.90;;;;;;5077414;28;20020;-76
2021/11/08 12:11:49;;;;;;;5.30;0.32;;;13.30;99.90;;;;;;5097351;28;20408;-78
2021/11/08 12:14:23;;;;;;;5.50;0.25;;;13.30;99.90;;;;;;5095107;28;20028;-76
2021/11/08 12:17:01;;;;;;;6.85;0.08;;;13.30;99.90;;;;;;5082057;28;20500;-77
2021/11/08 12:19:33;;;;;;;6.53;0.00;;;13.20;99.90;;;;;;5064052;28;20028;-77
2021/11/08 12:24:34;;;;;;;12.13;0.57;;;13.20;99.90;;;;;;5235780;22;20083;-79
2021/11/08 12:27:07;;;;;;;9.90;0.50;;;13.30;99.90;;;;;;5019220;28;20025;-78
2021/11/08 12:29:33;;;;;;;5.88;0.08;;;13.20;99.90;;;;;;5037073;28;20618;-79
2021/11/08 12:32:01;;;;;;;12.90;0.63;;;13.10;99.90;;;;;;5037632;28;20021;-79
2021/11/08 12:34:29;;;;;;;13.23;0.30;;;13.00;99.90;;;;;;5037064;28;20018;-78
2021/11/08 12:37:00;;;;;;;8.52;0.75;;;13.00;99.90;;;;;;5037249;28;20017;-79
2021/11/08 12:39:27;;;;;;;9.57;0.65;;;12.90;99.90;;;;;;5019658;28;20026;-79
2021/11/08 12:42:00;;;;;;;6.43;0.50;;;12.90;99.90;;;;;;5019051;28;20029;-79
2021/11/08 12:44:41;;;;;;;5.05;0.65;;;12.90;99.90;;;;;;5037460;28;20037;-79
2021/11/08 12:47:10;;;;;;;10.32;0.82;;;12.90;99.90;;;;;;5037189;28;20021;-79
2021/11/08 12:49:37;;;;;;;3.67;0.00;;;12.80;99.90;;;;;;5019024;28;20030;-79
2021/11/08 12:52:09;;;;;;;11.02;0.60;;;12.80;99.90;;;;;;5037514;28;20061;-79
2021/11/08 12:54:46;;;;;;;6.55;0.22;;;12.70;99.90;;;;;;5037472;28;20377;-79
2021/11/08 12:57:13;;;;;;;8.65;0.75;;;12.80;99.90;;;;;;5036975;28;20462;-79
2021/11/08 12:59:47;;;;;;;7.47;0.05;;;12.80;99.90;;;;;;5019047;28;20493;-79
2021/11/08 13:02:26;;;;;;;5.28;0.10;;;12.80;99.90;;;;;;5036728;28;20116;-79
2021/11/08 13:04:57;;;;;;;8.52;0.40;;;12.80;99.90;;;;;;5017892;28;20075;-79
2021/11/08 13:07:27;;;;;;;9.48;0.82;;;12.70;99.90;;;;;;5037118;28;20032;-79
2021/11/08 13:09:54;;;;;;;4.78;0.52;;;12.70;99.90;;;;;;5036591;28;20037;-79
2021/11/08 13:12:33;;;;;;;6.20;0.43;;;12.60;99.90;;;;;;5037247;28;20013;-80
2021/11/08 13:15:05;;;;;;;3.63;0.20;;;12.60;99.90;;;;;;5018823;28;20385;-79
2021/11/08 13:17:30;;;;;;;4.13;0.32;;;12.60;99.90;;;;;;5036952;28;20017;-79
2021/11/08 13:20:06;;;;;;;7.82;0.40;;;12.60;99.90;;;;;;5019077;28;20051;-79
2021/11/08 13:22:40;;;;;;;14.00;0.47;;;12.70;99.90;;;;;;5019071;28;20033;-79
2021/11/08 13:25:14;;;;;;;8.32;0.43;;;12.70;99.90;;;;;;5036592;28;20037;-79
2021/11/08 13:27:45;;;;;;;5.13;0.90;;;12.80;99.90;;;;;;5036895;28;20026;-79
2021/11/08 13:30:11;;;;;;;5.38;0.20;;;12.80;99.90;;;;;;5036222;28;20034;-79
2021/11/08 13:32:37;;;;;;;6.25;0.75;;;13.20;99.90;;;;;;5036558;28;20021;-79
2021/11/08 13:35:25;;;;;;;6.18;0.35;;;14.80;99.90;;;;;;5018987;28;20083;-79
2021/11/08 13:38:08;;;;;;;6.10;0.17;;;13.10;99.90;;;;;;5018815;28;20457;-79
2021/11/08 13:40:47;;;;;;;6.30;0.40;;;13.10;99.90;;;;;;5019045;28;20454;-79
2021/11/08 13:43:20;;;;;;;4.13;0.65;;;13.10;99.90;;;;;;5036929;28;20029;-79
2021/11/08 13:45:48;;;;;;;10.10;0.30;;;13.20;99.90;;;;;;5035764;28;20029;-79
2021/11/08 13:48:40;;;;;;;7.68;0.65;;;13.20;99.90;;;;;;5036292;28;20037;-79
2021/11/08 13:51:22;;;;;;;13.18;2.03;;;13.10;99.90;;;;;;5017843;28;20032;-78
2021/11/08 13:53:53;;;;;;;4.85;0.50;;;13.00;99.90;;;;;;5035550;28;20035;-79
2021/11/08 13:56:19;;;;;;;5.18;0.20;;;12.80;99.90;;;;;;5038515;28;20041;-80
2021/11/08 13:58:55;;;;;;;12.88;0.22;;;12.70;99.90;;;;;;5038734;28;20025;-80
2021/11/08 14:01:22;;;;;;;9.05;0.55;;;12.60;99.90;;;;;;5021523;28;20087;-80
2021/11/08 14:03:50;;;;;;;8.77;0.30;;;12.50;99.90;;;;;;5018593;28;20021;-76
2021/11/08 14:06:36;;;;;;;12.05;1.52;;;12.30;99.90;;;;;;5015413;28;20071;-77
2021/11/08 14:09:06;;;;;;;10.98;0.85;;;12.20;99.90;;;;;;5033436;28;20076;-77
2021/11/08 14:11:35;;;;;;;9.82;0.65;;;12.10;99.90;;;;;;5015795;28;20022;-76
2021/11/08 14:14:02;;;;;;;;;;;12.10;99.90;;;;;;5015891;28;20391;-76
2021/11/08 14:16:28;;;;;;;12.25;0.85;;;12.00;99.90;;;;;;5033385;28;19912;-76
2021/11/08 14:18:57;;;;;;;14.52;0.73;;;11.90;99.90;;;;;;5033296;28;20029;-76
2021/11/08 14:21:24;;;;;;;11.52;1.00;;;11.90;99.90;;;;;;5033470;28;20032;-76
2021/11/08 14:23:56;;;;;;;14.73;0.60;;;11.90;99.90;;;;;;5032935;28;20030;-76
2021/11/08 14:26:26;;;;;;;8.32;0.98;;;11.80;99.90;;;;;;5033207;28;20030;-76
2021/11/08 14:28:52;;;;;;;6.00;0.43;;;11.80;99.90;;;;;;5015328;28;20026;-76
2021/11/08 14:31:38;;;;;;;4.93;0.20;;;11.80;99.90;;;;;;5033029;28;20026;-76
2021/11/08 14:34:07;;;;;;;10.13;1.13;;;11.70;99.90;;;;;;5017700;28;20034;-76
2021/11/08 14:36:40;;;;;;;9.13;0.38;;;11.70;99.90;;;;;;5037007;28;20021;-76
2021/11/08 14:39:11;;;;;;;13.10;1.38;;;11.70;99.90;;;;;;5036844;28;20021;-76
2021/11/08 14:41:48;;;;;;;4.90;0.22;;;11.70;99.90;;;;;;5019218;28;20025;-76
2021/11/08 14:44:13;;;;;;;10.82;1.85;;;11.60;99.90;;;;;;5037122;28;20028;-76
2021/11/08 14:46:44;;;;;;;9.45;0.63;;;11.60;99.90;;;;;;5036770;28;20096;-76
2021/11/08 14:49:19;;;;;;;6.90;0.20;;;11.60;99.90;;;;;;5019556;28;20017;-78
2021/11/08 14:52:06;;;;;;;6.93;0.30;;;11.60;99.90;;;;;;5022595;28;20018;-79
2021/11/08 14:54:34;;;;;;;5.50;0.67;;;11.60;99.90;;;;;;5021398;28;20048;-79